Main page
METAR-TAF:

METAR-TAF

Airports :

Debrecen International Airport

Debrecen, Hungary

latitude: 47-29N, longitude: 021-36E, elevation: 108 m

Current weather observation

The report was made 35 minutes ago, at 03:45 UTC
Wind 9 kt from the South
Temperature 3°C
Humidity 75%
Pressure 1013 hPa
Visibility 10 km or more
no clouds below 1500 m and no cumulonimbus

METAR: LHDC 250345Z AUTO 18009KT CAVOK 03/M01 Q1013 NOSIG

Time: 05:20 (04:20 UTC)

Forecast

The report was made 1 hour and 20 minutes ago, at 03:00 UTC
Forecast valid from 25 at 03 UTC to 25 at 12 UTC
Wind 8 kt from the South
Visibility 10 km or more
no clouds below 1500 m and no cumulonimbus
Becoming
from 25 at 03 UTC to 25 at 06 UTC
Wind 14 kt from the South/Southwest with gusts up to 24 kt

TAF: LHDC 250300Z 2503/2512 18008KT CAVOK BECMG 2503/2506 21014G24KT

Weather observations and forecasts of more than 4000 airports (METAR and TAF reports).

The available stations are represented by yellow and red dots on the map.

Hover mouse over dot to see the name of the station.

Then click to see weather observations and forecasts.

To change the map : click on the green buttons with a black cross to zoom in, on the green button with a dash to zoom out, or on the green arrows for adjacent maps.


METAR-TAF: